sensor_id;sensor_type;location;lat;lon;timestamp;temperature;humidity
71142;DHT22;58808;59.366;17.970;2023-03-29T00:01:17;-4.40;99.90
71142;DHT22;58808;59.366;17.970;2023-03-29T00:03:43;-4.40;99.90
71142;DHT22;58808;59.366;17.970;2023-03-29T00:06:10;-4.50;99.90
71142;DHT22;58808;59.366;17.970;2023-03-29T00:08:40;-4.50;99.90
71142;DHT22;58808;59.366;17.970;2023-03-29T00:11:07;-4.60;99.90
71142;DHT22;58808;59.366;17.970;2023-03-29T00:13:33;-4.60;99.90
71142;DHT22;58808;59.366;17.970;2023-03-29T00:15:59;-4.70;99.90
71142;DHT22;58808;59.366;17.970;2023-03-29T00:18:25;-4.70;99.90
71142;DHT22;58808;59.366;17.970;2023-03-29T00:20:58;-4.80;99.90
71142;DHT22;58808;59.366;17.970;2023-03-29T00:23:24;-4.80;99.90
71142;DHT22;58808;59.366;17.970;2023-03-29T00:25:52;-4.80;99.90
71142;DHT22;58808;59.366;17.970;2023-03-29T00:28:18;-4.80;99.90
71142;DHT22;58808;59.366;17.970;2023-03-29T00:30:44;-4.70;99.90
71142;DHT22;58808;59.366;17.970;2023-03-29T00:33:10;-4.70;99.90
71142;DHT22;58808;59.366;17.970;2023-03-29T00:35:40;-4.80;99.90
71142;DHT22;58808;59.366;17.970;2023-03-29T00:38:07;-4.80;99.90
71142;DHT22;58808;59.366;17.970;2023-03-29T00:40:33;-5.00;99.90
71142;DHT22;58808;59.366;17.970;2023-03-29T00:42:59;-5.20;99.90
71142;DHT22;58808;59.366;17.970;2023-03-29T00:45:27;-5.10;99.90
71142;DHT22;58808;59.366;17.970;2023-03-29T00:48:14;-5.30;99.90
71142;DHT22;58808;59.366;17.970;2023-03-29T00:53:19;-5.30;99.90
71142;DHT22;58808;59.366;17.970;2023-03-29T00:56:00;-5.30;99.90
71142;DHT22;58808;59.366;17.970;2023-03-29T00:59:00;-5.10;99.90
71142;DHT22;58808;59.366;17.970;2023-03-29T01:04:24;-4.90;99.90
71142;DHT22;58808;59.366;17.970;2023-03-29T01:07:01;-4.90;99.90
71142;DHT22;58808;59.366;17.970;2023-03-29T01:09:28;-4.90;99.90
71142;DHT22;58808;59.366;17.970;2023-03-29T01:12:01;-4.90;99.90
71142;DHT22;58808;59.366;17.970;2023-03-29T01:14:35;-4.90;99.90
71142;DHT22;58808;59.366;17.970;2023-03-29T01:17:02;-4.80;99.90
71142;DHT22;58808;59.366;17.970;2023-03-29T01:19:32;-4.80;99.90
71142;DHT22;58808;59.366;17.970;2023-03-29T01:24:51;-5.10;99.90
71142;DHT22;58808;59.366;17.970;2023-03-29T01:30:00;-5.00;99.90
71142;DHT22;58808;59.366;17.970;2023-03-29T01:32:53;-4.90;99.90
71142;DHT22;58808;59.366;17.970;2023-03-29T01:35:42;-4.90;99.90
71142;DHT22;58808;59.366;17.970;2023-03-29T01:38:16;-5.00;99.90
71142;DHT22;58808;59.366;17.970;2023-03-29T01:40:43;-5.00;99.90
71142;DHT22;58808;59.366;17.970;2023-03-29T01:43:33;-5.10;99.90
71142;DHT22;58808;59.366;17.970;2023-03-29T01:49:01;-5.10;99.90
71142;DHT22;58808;59.366;17.970;2023-03-29T01:51:43;-5.00;99.90
71142;DHT22;58808;59.366;17.970;2023-03-29T01:54:16;-5.00;99.90
71142;DHT22;58808;59.366;17.970;2023-03-29T01:56:45;-5.00;99.90
71142;DHT22;58808;59.366;17.970;2023-03-29T01:59:17;-5.10;99.90
71142;DHT22;58808;59.366;17.970;2023-03-29T02:01:48;-5.10;99.90
71142;DHT22;58808;59.366;17.970;2023-03-29T02:04:19;-5.10;99.90
71142;DHT22;58808;59.366;17.970;2023-03-29T02:06:47;-5.10;99.90
71142;DHT22;58808;59.366;17.970;2023-03-29T02:09:15;-5.20;99.90
71142;DHT22;58808;59.366;17.970;2023-03-29T02:11:43;-5.20;99.90
71142;DHT22;58808;59.366;17.970;2023-03-29T02:14:09;-5.20;99.90
71142;DHT22;58808;59.366;17.970;2023-03-29T02:16:36;-5.20;99.90
71142;DHT22;58808;59.366;17.970;2023-03-29T02:19:04;-5.20;99.90
71142;DHT22;58808;59.366;17.970;2023-03-29T02:21:44;-5.10;99.90
71142;DHT22;58808;59.366;17.970;2023-03-29T02:24:17;-5.20;99.90
71142;DHT22;58808;59.366;17.970;2023-03-29T02:26:45;-5.20;99.90
71142;DHT22;58808;59.366;17.970;2023-03-29T02:29:11;-5.20;99.90
71142;DHT22;58808;59.366;17.970;2023-03-29T02:31:41;-5.30;99.90
71142;DHT22;58808;59.366;17.970;2023-03-29T02:34:22;-5.30;99.90
71142;DHT22;58808;59.366;17.970;2023-03-29T02:37:01;-5.20;99.90
71142;DHT22;58808;59.366;17.970;2023-03-29T02:39:29;-5.20;99.90
71142;DHT22;58808;59.366;17.970;2023-03-29T02:41:58;-5.20;99.90
71142;DHT22;58808;59.366;17.970;2023-03-29T02:44:27;-5.30;99.90
71142;DHT22;58808;59.366;17.970;2023-03-29T02:47:02;-5.30;99.90
71142;DHT22;58808;59.366;17.970;2023-03-29T02:49:28;-5.20;99.90
71142;DHT22;58808;59.366;17.970;2023-03-29T02:51:56;-5.20;99.90
71142;DHT22;58808;59.366;17.970;2023-03-29T02:54:26;-5.30;99.90
71142;DHT22;58808;59.366;17.970;2023-03-29T02:57:03;-5.30;99.90
71142;DHT22;58808;59.366;17.970;2023-03-29T02:59:32;-5.40;99.90
71142;DHT22;58808;59.366;17.970;2023-03-29T03:01:59;-5.40;99.90
71142;DHT22;58808;59.366;17.970;2023-03-29T03:04:25;-5.40;99.90
71142;DHT22;58808;59.366;17.970;2023-03-29T03:06:51;-5.40;99.90
71142;DHT22;58808;59.366;17.970;2023-03-29T03:09:17;-5.50;99.90
71142;DHT22;58808;59.366;17.970;2023-03-29T03:11:43;-5.50;99.90
71142;DHT22;58808;59.366;17.970;2023-03-29T03:14:09;-5.50;99.90
71142;DHT22;58808;59.366;17.970;2023-03-29T03:16:35;-5.50;99.90
71142;DHT22;58808;59.366;17.970;2023-03-29T03:19:02;-5.50;99.90
71142;DHT22;58808;59.366;17.970;2023-03-29T03:21:28;-5.50;99.90
71142;DHT22;58808;59.366;17.970;2023-03-29T03:23:54;-5.60;99.90
71142;DHT22;58808;59.366;17.970;2023-03-29T03:26:20;-5.60;99.90
71142;DHT22;58808;59.366;17.970;2023-03-29T03:28:46;-5.60;99.90
71142;DHT22;58808;59.366;17.970;2023-03-29T03:31:13;-5.60;99.90
71142;DHT22;58808;59.366;17.970;2023-03-29T03:33:39;-5.70;99.90
71142;DHT22;58808;59.366;17.970;2023-03-29T03:36:07;-5.70;99.90
71142;DHT22;58808;59.366;17.970;2023-03-29T03:38:33;-5.60;99.90
71142;DHT22;58808;59.366;17.970;2023-03-29T03:40:59;-5.50;99.90
71142;DHT22;58808;59.366;17.970;2023-03-29T03:43:26;-5.50;99.90
71142;DHT22;58808;59.366;17.970;2023-03-29T03:45:53;-5.50;99.90
71142;DHT22;58808;59.366;17.970;2023-03-29T03:48:19;-5.50;99.90
71142;DHT22;58808;59.366;17.970;2023-03-29T03:50:56;-5.50;99.90
71142;DHT22;58808;59.366;17.970;2023-03-29T03:53:25;-5.50;99.90
71142;DHT22;58808;59.366;17.970;2023-03-29T03:55:53;-5.50;99.90
71142;DHT22;58808;59.366;17.970;2023-03-29T03:58:20;-5.70;99.90
71142;DHT22;58808;59.366;17.970;2023-03-29T04:00:48;-5.60;99.90
71142;DHT22;58808;59.366;17.970;2023-03-29T04:03:14;-5.60;99.90
71142;DHT22;58808;59.366;17.970;2023-03-29T04:05:43;-5.60;99.90
71142;DHT22;58808;59.366;17.970;2023-03-29T04:08:11;-5.60;99.90
71142;DHT22;58808;59.366;17.970;2023-03-29T04:10:37;-5.60;99.90
71142;DHT22;58808;59.366;17.970;2023-03-29T04:13:03;-5.60;99.90
71142;DHT22;58808;59.366;17.970;2023-03-29T04:15:30;-5.60;99.90
71142;DHT22;58808;59.366;17.970;2023-03-29T04:17:57;-5.60;99.90
71142;DHT22;58808;59.366;17.970;2023-03-29T04:20:24;-5.60;99.90
71142;DHT22;58808;59.366;17.970;2023-03-29T04:22:50;-5.70;99.90
71142;DHT22;58808;59.366;17.970;2023-03-29T04:25:16;-5.70;99.90
71142;DHT22;58808;59.366;17.970;2023-03-29T04:27:43;-5.70;99.90
71142;DHT22;58808;59.366;17.970;2023-03-29T04:30:09;-5.70;99.90
71142;DHT22;58808;59.366;17.970;2023-03-29T04:32:36;-5.70;99.90
71142;DHT22;58808;59.366;17.970;2023-03-29T04:35:02;-5.60;99.90
71142;DHT22;58808;59.366;17.970;2023-03-29T04:37:32;-5.60;99.90
71142;DHT22;58808;59.366;17.970;2023-03-29T04:39:58;-5.50;99.90
71142;DHT22;58808;59.366;17.970;2023-03-29T04:42:29;-5.60;99.90
71142;DHT22;58808;59.366;17.970;2023-03-29T04:44:55;-5.60;99.90
71142;DHT22;58808;59.366;17.970;2023-03-29T04:47:21;-5.60;99.90
71142;DHT22;58808;59.366;17.970;2023-03-29T04:49:47;-5.60;99.90
71142;DHT22;58808;59.366;17.970;2023-03-29T04:52:13;-5.60;99.90
71142;DHT22;58808;59.366;17.970;2023-03-29T04:54:39;-5.70;99.90
71142;DHT22;58808;59.366;17.970;2023-03-29T04:57:06;-5.60;99.90
71142;DHT22;58808;59.366;17.970;2023-03-29T04:59:32;-5.50;99.90
71142;DHT22;58808;59.366;17.970;2023-03-29T05:01:58;-5.50;99.90
71142;DHT22;58808;59.366;17.970;2023-03-29T05:04:25;-5.50;99.90
71142;DHT22;58808;59.366;17.970;2023-03-29T05:06:53;-5.50;99.90
71142;DHT22;58808;59.366;17.970;2023-03-29T05:09:19;-5.50;99.90
71142;DHT22;58808;59.366;17.970;2023-03-29T05:11:45;-5.40;99.90
71142;DHT22;58808;59.366;17.970;2023-03-29T05:14:11;-5.40;99.90
71142;DHT22;58808;59.366;17.970;2023-03-29T05:16:37;-5.40;99.90
71142;DHT22;58808;59.366;17.970;2023-03-29T05:19:03;-5.30;99.90
71142;DHT22;58808;59.366;17.970;2023-03-29T05:21:29;-5.30;99.90
71142;DHT22;58808;59.366;17.970;2023-03-29T05:23:55;-5.20;99.90
71142;DHT22;58808;59.366;17.970;2023-03-29T05:26:21;-5.20;99.90
71142;DHT22;58808;59.366;17.970;2023-03-29T05:28:48;-5.20;99.90
71142;DHT22;58808;59.366;17.970;2023-03-29T05:31:15;-5.10;99.90
71142;DHT22;58808;59.366;17.970;2023-03-29T05:33:41;-5.00;99.90
71142;DHT22;58808;59.366;17.970;2023-03-29T05:36:09;-5.00;99.90
71142;DHT22;58808;59.366;17.970;2023-03-29T05:38:38;-4.90;99.90
71142;DHT22;58808;59.366;17.970;2023-03-29T05:41:05;-4.90;99.90
71142;DHT22;58808;59.366;17.970;2023-03-29T05:43:31;-4.90;99.90
71142;DHT22;58808;59.366;17.970;2023-03-29T05:45:57;-4.80;99.90
71142;DHT22;58808;59.366;17.970;2023-03-29T05:48:23;-4.80;99.90
71142;DHT22;58808;59.366;17.970;2023-03-29T05:50:52;-4.70;99.90
71142;DHT22;58808;59.366;17.970;2023-03-29T05:53:19;-4.70;99.90
71142;DHT22;58808;59.366;17.970;2023-03-29T05:55:46;-4.70;99.90
71142;DHT22;58808;59.366;17.970;2023-03-29T05:58:13;-4.60;99.90
71142;DHT22;58808;59.366;17.970;2023-03-29T06:00:40;-4.60;99.90
71142;DHT22;58808;59.366;17.970;2023-03-29T06:03:11;-4.50;99.90
71142;DHT22;58808;59.366;17.970;2023-03-29T06:05:38;-4.40;99.90
71142;DHT22;58808;59.366;17.970;2023-03-29T06:08:04;-4.30;99.90
71142;DHT22;58808;59.366;17.970;2023-03-29T06:10:30;-4.20;99.90
71142;DHT22;58808;59.366;17.970;2023-03-29T06:12:57;-4.10;99.90
71142;DHT22;58808;59.366;17.970;2023-03-29T06:15:23;-4.00;99.90
71142;DHT22;58808;59.366;17.970;2023-03-29T06:17:49;-3.90;99.90
71142;DHT22;58808;59.366;17.970;2023-03-29T06:20:16;-3.80;99.90
71142;DHT22;58808;59.366;17.970;2023-03-29T06:22:42;-3.70;99.90
71142;DHT22;58808;59.366;17.970;2023-03-29T06:25:08;-3.60;99.90
71142;DHT22;58808;59.366;17.970;2023-03-29T06:27:38;-3.50;99.90
71142;DHT22;58808;59.366;17.970;2023-03-29T06:30:04;-3.50;99.90
71142;DHT22;58808;59.366;17.970;2023-03-29T06:32:33;-3.40;99.90
71142;DHT22;58808;59.366;17.970;2023-03-29T06:34:59;-3.30;99.90
71142;DHT22;58808;59.366;17.970;2023-03-29T06:37:25;-3.20;99.90
71142;DHT22;58808;59.366;17.970;2023-03-29T06:39:50;-3.20;99.90
71142;DHT22;58808;59.366;17.970;2023-03-29T06:42:21;-3.20;99.90
71142;DHT22;58808;59.366;17.970;2023-03-29T06:44:47;-3.20;99.90
71142;DHT22;58808;59.366;17.970;2023-03-29T06:47:14;-3.10;99.90
71142;DHT22;58808;59.366;17.970;2023-03-29T06:49:41;-3.10;99.90
71142;DHT22;58808;59.366;17.970;2023-03-29T06:52:07;-3.00;99.90
71142;DHT22;58808;59.366;17.970;2023-03-29T06:54:33;-2.90;99.90
71142;DHT22;58808;59.366;17.970;2023-03-29T06:57:00;-2.80;99.90
71142;DHT22;58808;59.366;17.970;2023-03-29T06:59:26;-2.70;99.90
71142;DHT22;58808;59.366;17.970;2023-03-29T07:01:53;-2.70;99.90
71142;DHT22;58808;59.366;17.970;2023-03-29T07:04:20;-2.60;99.90
71142;DHT22;58808;59.366;17.970;2023-03-29T07:06:48;-2.60;99.90
71142;DHT22;58808;59.366;17.970;2023-03-29T07:09:26;-2.50;99.90
71142;DHT22;58808;59.366;17.970;2023-03-29T07:11:57;-2.50;99.90
71142;DHT22;58808;59.366;17.970;2023-03-29T07:14:24;-2.40;99.90
71142;DHT22;58808;59.366;17.970;2023-03-29T07:16:54;-2.30;99.90
71142;DHT22;58808;59.366;17.970;2023-03-29T07:19:20;-2.30;99.90
71142;DHT22;58808;59.366;17.970;2023-03-29T07:21:49;-2.20;99.90
71142;DHT22;58808;59.366;17.970;2023-03-29T07:24:15;-2.20;99.90
71142;DHT22;58808;59.366;17.970;2023-03-29T07:26:41;-1.90;99.90
71142;DHT22;58808;59.366;17.970;2023-03-29T07:29:07;-1.90;99.90
71142;DHT22;58808;59.366;17.970;2023-03-29T07:31:35;-1.90;99.90
71142;DHT22;58808;59.366;17.970;2023-03-29T07:34:03;-1.80;99.90
71142;DHT22;58808;59.366;17.970;2023-03-29T07:36:38;-1.80;99.90
71142;DHT22;58808;59.366;17.970;2023-03-29T07:39:05;-1.70;99.90
71142;DHT22;58808;59.366;17.970;2023-03-29T07:41:31;-1.60;99.90
71142;DHT22;58808;59.366;17.970;2023-03-29T07:43:57;-1.60;99.90
71142;DHT22;58808;59.366;17.970;2023-03-29T07:46:29;-1.50;99.90
71142;DHT22;58808;59.366;17.970;2023-03-29T07:48:55;-1.60;99.90
71142;DHT22;58808;59.366;17.970;2023-03-29T07:51:22;-1.50;99.90
71142;DHT22;58808;59.366;17.970;2023-03-29T07:53:48;-1.50;99.90
71142;DHT22;58808;59.366;17.970;2023-03-29T07:56:14;-1.60;99.90
71142;DHT22;58808;59.366;17.970;2023-03-29T07:58:40;-1.60;99.90
71142;DHT22;58808;59.366;17.970;2023-03-29T08:01:06;-1.50;99.90
71142;DHT22;58808;59.366;17.970;2023-03-29T08:03:33;-1.40;99.90
71142;DHT22;58808;59.366;17.970;2023-03-29T08:06:02;-1.40;99.90
71142;DHT22;58808;59.366;17.970;2023-03-29T08:08:28;-1.40;99.90
71142;DHT22;58808;59.366;17.970;2023-03-29T08:10:54;-1.30;99.90
71142;DHT22;58808;59.366;17.970;2023-03-29T08:13:20;-1.30;99.90
71142;DHT22;58808;59.366;17.970;2023-03-29T08:15:46;-1.30;99.90
71142;DHT22;58808;59.366;17.970;2023-03-29T08:18:13;-1.30;99.90
71142;DHT22;58808;59.366;17.970;2023-03-29T08:20:39;-1.30;99.90
71142;DHT22;58808;59.366;17.970;2023-03-29T08:23:05;-1.40;99.90
71142;DHT22;58808;59.366;17.970;2023-03-29T08:25:31;-1.30;99.90
71142;DHT22;58808;59.366;17.970;2023-03-29T08:27:57;-1.30;99.90
71142;DHT22;58808;59.366;17.970;2023-03-29T08:30:23;-1.20;99.90
71142;DHT22;58808;59.366;17.970;2023-03-29T08:32:49;-1.00;99.90
71142;DHT22;58808;59.366;17.970;2023-03-29T08:35:15;-1.00;99.90
71142;DHT22;58808;59.366;17.970;2023-03-29T08:37:41;-1.10;99.90
71142;DHT22;58808;59.366;17.970;2023-03-29T08:40:12;-1.00;99.90
71142;DHT22;58808;59.366;17.970;2023-03-29T08:43:03;-0.90;99.90
71142;DHT22;58808;59.366;17.970;2023-03-29T08:48:28;-0.80;99.20
71142;DHT22;58808;59.366;17.970;2023-03-29T08:51:05;-0.80;98.00
71142;DHT22;58808;59.366;17.970;2023-03-29T08:53:40;-0.80;96.50
71142;DHT22;58808;59.366;17.970;2023-03-29T08:56:16;-0.80;97.10
71142;DHT22;58808;59.366;17.970;2023-03-29T08:58:43;-0.70;92.10
71142;DHT22;58808;59.366;17.970;2023-03-29T09:01:10;-0.80;91.80
71142;DHT22;58808;59.366;17.970;2023-03-29T09:06:19;-0.90;91.60
71142;DHT22;58808;59.366;17.970;2023-03-29T09:08:48;-0.90;92.30
71142;DHT22;58808;59.366;17.970;2023-03-29T09:25:50;-0.70;93.20
71142;DHT22;58808;59.366;17.970;2023-03-29T09:28:24;-0.50;90.50
71142;DHT22;58808;59.366;17.970;2023-03-29T09:31:24;-0.60;88.00
71142;DHT22;58808;59.366;17.970;2023-03-29T09:34:01;-0.60;87.60
71142;DHT22;58808;59.366;17.970;2023-03-29T09:37:02;-0.70;88.40
71142;DHT22;58808;59.366;17.970;2023-03-29T09:39:28;-0.70;91.30
71142;DHT22;58808;59.366;17.970;2023-03-29T09:42:06;-0.60;90.80
71142;DHT22;58808;59.366;17.970;2023-03-29T09:44:39;-0.50;90.80
71142;DHT22;58808;59.366;17.970;2023-03-29T09:49:46;-0.30;88.70
71142;DHT22;58808;59.366;17.970;2023-03-29T09:52:15;-0.40;90.70
71142;DHT22;58808;59.366;17.970;2023-03-29T09:54:42;-0.40;91.20
71142;DHT22;58808;59.366;17.970;2023-03-29T09:57:11;-0.30;89.90
71142;DHT22;58808;59.366;17.970;2023-03-29T09:59:38;-0.30;88.00
71142;DHT22;58808;59.366;17.970;2023-03-29T10:02:09;-0.30;85.40
71142;DHT22;58808;59.366;17.970;2023-03-29T10:04:36;-0.30;83.60
71142;DHT22;58808;59.366;17.970;2023-03-29T10:07:04;-0.40;82.60
71142;DHT22;58808;59.366;17.970;2023-03-29T10:09:31;-0.60;85.50
71142;DHT22;58808;59.366;17.970;2023-03-29T10:11:59;-0.50;87.30
71142;DHT22;58808;59.366;17.970;2023-03-29T10:14:36;-0.50;89.50
71142;DHT22;58808;59.366;17.970;2023-03-29T10:17:24;-0.60;90.80
71142;DHT22;58808;59.366;17.970;2023-03-29T10:19:55;-0.70;91.20
71142;DHT22;58808;59.366;17.970;2023-03-29T10:22:24;-0.70;91.80
71142;DHT22;58808;59.366;17.970;2023-03-29T10:24:51;-0.70;91.70
71142;DHT22;58808;59.366;17.970;2023-03-29T10:27:25;-0.90;92.80
71142;DHT22;58808;59.366;17.970;2023-03-29T10:29:52;-0.80;93.50
71142;DHT22;58808;59.366;17.970;2023-03-29T10:34:48;-0.80;94.00
71142;DHT22;58808;59.366;17.970;2023-03-29T10:37:19;-0.70;94.40
71142;DHT22;58808;59.366;17.970;2023-03-29T10:39:49;-0.70;95.00
71142;DHT22;58808;59.366;17.970;2023-03-29T10:42:22;-0.70;94.80
71142;DHT22;58808;59.366;17.970;2023-03-29T10:44:57;-0.80;94.40
71142;DHT22;58808;59.366;17.970;2023-03-29T10:47:23;-0.90;95.70
71142;DHT22;58808;59.366;17.970;2023-03-29T10:49:58;-0.90;96.90
71142;DHT22;58808;59.366;17.970;2023-03-29T10:52:28;-1.00;99.90
71142;DHT22;58808;59.366;17.970;2023-03-29T10:54:55;-1.10;99.90
71142;DHT22;58808;59.366;17.970;2023-03-29T10:57:34;-1.00;99.90
71142;DHT22;58808;59.366;17.970;2023-03-29T11:00:22;-1.00;99.90
71142;DHT22;58808;59.366;17.970;2023-03-29T11:05:53;-0.90;99.90
71142;DHT22;58808;59.366;17.970;2023-03-29T11:08:55;-0.90;99.90
71142;DHT22;58808;59.366;17.970;2023-03-29T11:19:37;-0.80;99.90
71142;DHT22;58808;59.366;17.970;2023-03-29T11:22:22;-0.80;99.90
71142;DHT22;58808;59.366;17.970;2023-03-29T11:25:39;-0.70;99.90
71142;DHT22;58808;59.366;17.970;2023-03-29T11:34:19;-0.80;99.90
71142;DHT22;58808;59.366;17.970;2023-03-29T11:42:29;-0.90;99.90
71142;DHT22;58808;59.366;17.970;2023-03-29T11:44:58;-0.80;99.90
71142;DHT22;58808;59.366;17.970;2023-03-29T11:47:31;-0.80;99.90
71142;DHT22;58808;59.366;17.970;2023-03-29T11:52:58;-0.80;99.90
71142;DHT22;58808;59.366;17.970;2023-03-29T11:55:30;-0.70;99.90
71142;DHT22;58808;59.366;17.970;2023-03-29T11:58:04;-0.70;99.90
71142;DHT22;58808;59.366;17.970;2023-03-29T12:00:39;-0.70;99.90
71142;DHT22;58808;59.366;17.970;2023-03-29T12:05:53;-0.90;99.90
71142;DHT22;58808;59.366;17.970;2023-03-29T12:08:43;-1.00;99.90
71142;DHT22;58808;59.366;17.970;2023-03-29T12:11:33;-0.90;99.90
71142;DHT22;58808;59.366;17.970;2023-03-29T12:14:04;-0.90;99.90
71142;DHT22;58808;59.366;17.970;2023-03-29T12:19:03;-0.90;99.90
71142;DHT22;58808;59.366;17.970;2023-03-29T12:21:31;-0.80;99.90
71142;DHT22;58808;59.366;17.970;2023-03-29T12:23:58;-0.70;99.90
71142;DHT22;58808;59.366;17.970;2023-03-29T12:38:05;-1.00;99.90
71142;DHT22;58808;59.366;17.970;2023-03-29T12:40:45;-1.10;99.90
71142;DHT22;58808;59.366;17.970;2023-03-29T12:43:22;-1.30;99.90
71142;DHT22;58808;59.366;17.970;2023-03-29T12:46:10;-1.30;99.90
71142;DHT22;58808;59.366;17.970;2023-03-29T12:48:40;-1.30;99.90
71142;DHT22;58808;59.366;17.970;2023-03-29T12:51:17;-1.20;99.90
71142;DHT22;58808;59.366;17.970;2023-03-29T12:53:45;-0.80;99.90
71142;DHT22;58808;59.366;17.970;2023-03-29T12:56:20;-0.90;99.90
71142;DHT22;58808;59.366;17.970;2023-03-29T13:01:37;-1.10;99.90
71142;DHT22;58808;59.366;17.970;2023-03-29T13:04:15;-1.20;99.90
71142;DHT22;58808;59.366;17.970;2023-03-29T13:09:26;-1.10;99.90
71142;DHT22;58808;59.366;17.970;2023-03-29T13:14:30;-1.20;99.90
71142;DHT22;58808;59.366;17.970;2023-03-29T13:17:05;-1.20;99.90
71142;DHT22;58808;59.366;17.970;2023-03-29T13:30:58;-1.30;99.90
71142;DHT22;58808;59.366;17.970;2023-03-29T13:36:19;-1.20;99.90
71142;DHT22;58808;59.366;17.970;2023-03-29T13:38:49;-1.20;99.90
71142;DHT22;58808;59.366;17.970;2023-03-29T13:41:46;-1.20;99.90
71142;DHT22;58808;59.366;17.970;2023-03-29T13:44:24;-1.20;99.90
71142;DHT22;58808;59.366;17.970;2023-03-29T13:47:08;-1.20;99.90
71142;DHT22;58808;59.366;17.970;2023-03-29T13:49:37;-1.20;99.90
71142;DHT22;58808;59.366;17.970;2023-03-29T13:52:44;-1.30;99.90
71142;DHT22;58808;59.366;17.970;2023-03-29T13:55:14;-1.20;99.90
71142;DHT22;58808;59.366;17.970;2023-03-29T13:58:11;-1.10;99.90
71142;DHT22;58808;59.366;17.970;2023-03-29T14:00:44;-1.10;99.90
71142;DHT22;58808;59.366;17.970;2023-03-29T14:03:14;-1.00;99.90
71142;DHT22;58808;59.366;17.970;2023-03-29T14:05:47;-1.20;99.90
71142;DHT22;58808;59.366;17.970;2023-03-29T14:08:20;-1.10;99.90
71142;DHT22;58808;59.366;17.970;2023-03-29T14:10:47;-1.10;99.90
71142;DHT22;58808;59.366;17.970;2023-03-29T14:13:19;-1.10;99.90
71142;DHT22;58808;59.366;17.970;2023-03-29T14:15:51;-1.10;99.90
71142;DHT22;58808;59.366;17.970;2023-03-29T14:18:21;-1.00;99.90
71142;DHT22;58808;59.366;17.970;2023-03-29T14:20:50;-1.10;99.90
71142;DHT22;58808;59.366;17.970;2023-03-29T14:23:22;-1.10;99.90
71142;DHT22;58808;59.366;17.970;2023-03-29T14:25:48;-1.10;99.90
71142;DHT22;58808;59.366;17.970;2023-03-29T14:28:25;-1.10;99.90
71142;DHT22;58808;59.366;17.970;2023-03-29T14:30:52;-1.20;99.90
71142;DHT22;58808;59.366;17.970;2023-03-29T14:33:32;-1.30;99.90
71142;DHT22;58808;59.366;17.970;2023-03-29T14:36:02;-1.20;99.90
71142;DHT22;58808;59.366;17.970;2023-03-29T14:38:29;-1.10;99.90
71142;DHT22;58808;59.366;17.970;2023-03-29T14:41:00;-1.20;99.90
71142;DHT22;58808;59.366;17.970;2023-03-29T14:43:27;-1.30;99.90
71142;DHT22;58808;59.366;17.970;2023-03-29T14:45:56;-1.30;99.90
71142;DHT22;58808;59.366;17.970;2023-03-29T14:48:23;-1.30;99.90
71142;DHT22;58808;59.366;17.970;2023-03-29T14:50:49;-1.30;99.90
71142;DHT22;58808;59.366;17.970;2023-03-29T14:53:19;-1.30;99.90
71142;DHT22;58808;59.366;17.970;2023-03-29T14:55:50;-1.30;99.90
71142;DHT22;58808;59.366;17.970;2023-03-29T14:58:33;-1.30;99.90
71142;DHT22;58808;59.366;17.970;2023-03-29T15:01:13;-1.40;99.90
71142;DHT22;58808;59.366;17.970;2023-03-29T15:04:02;-1.40;99.90
71142;DHT22;58808;59.366;17.970;2023-03-29T15:06:29;-1.50;99.90
71142;DHT22;58808;59.366;17.970;2023-03-29T15:08:57;-1.50;99.90
71142;DHT22;58808;59.366;17.970;2023-03-29T15:11:27;-1.40;99.90
71142;DHT22;58808;59.366;17.970;2023-03-29T15:14:05;-1.50;99.90
71142;DHT22;58808;59.366;17.970;2023-03-29T15:16:37;-1.50;99.90
71142;DHT22;58808;59.366;17.970;2023-03-29T15:19:03;-1.50;99.90
71142;DHT22;58808;59.366;17.970;2023-03-29T15:21:33;-1.50;99.90
71142;DHT22;58808;59.366;17.970;2023-03-29T15:24:02;-1.60;99.90
71142;DHT22;58808;59.366;17.970;2023-03-29T15:26:36;-1.50;99.90
71142;DHT22;58808;59.366;17.970;2023-03-29T15:29:12;-1.60;99.90
71142;DHT22;58808;59.366;17.970;2023-03-29T15:31:39;-1.60;99.90
71142;DHT22;58808;59.366;17.970;2023-03-29T15:34:10;-1.60;99.90
71142;DHT22;58808;59.366;17.970;2023-03-29T15:36:43;-1.60;99.90
71142;DHT22;58808;59.366;17.970;2023-03-29T15:39:16;-1.60;99.90
71142;DHT22;58808;59.366;17.970;2023-03-29T15:41:46;-1.60;99.90
71142;DHT22;58808;59.366;17.970;2023-03-29T15:44:14;-1.60;99.90
71142;DHT22;58808;59.366;17.970;2023-03-29T15:46:42;-1.60;99.90
71142;DHT22;58808;59.366;17.970;2023-03-29T15:49:12;-1.70;99.90
71142;DHT22;58808;59.366;17.970;2023-03-29T15:51:39;-1.70;99.90
71142;DHT22;58808;59.366;17.970;2023-03-29T15:54:05;-1.70;99.90
71142;DHT22;58808;59.366;17.970;2023-03-29T15:56:36;-1.70;99.90
71142;DHT22;58808;59.366;17.970;2023-03-29T15:59:05;-1.80;99.90
71142;DHT22;58808;59.366;17.970;2023-03-29T16:01:33;-1.80;99.90
71142;DHT22;58808;59.366;17.970;2023-03-29T16:04:14;-1.80;99.90
71142;DHT22;58808;59.366;17.970;2023-03-29T16:06:42;-1.80;99.90
71142;DHT22;58808;59.366;17.970;2023-03-29T16:09:08;-1.80;99.90
71142;DHT22;58808;59.366;17.970;2023-03-29T16:11:36;-1.70;99.90
71142;DHT22;58808;59.366;17.970;2023-03-29T16:14:12;-1.70;99.90
71142;DHT22;58808;59.366;17.970;2023-03-29T16:16:40;-1.70;99.90
71142;DHT22;58808;59.366;17.970;2023-03-29T16:19:06;-1.80;99.90
71142;DHT22;58808;59.366;17.970;2023-03-29T16:21:32;-1.80;99.90
71142;DHT22;58808;59.366;17.970;2023-03-29T16:23:58;-1.80;99.90
71142;DHT22;58808;59.366;17.970;2023-03-29T16:26:24;-1.80;99.90
71142;DHT22;58808;59.366;17.970;2023-03-29T16:28:50;-1.80;99.90
71142;DHT22;58808;59.366;17.970;2023-03-29T16:31:16;-1.80;99.90
71142;DHT22;58808;59.366;17.970;2023-03-29T16:33:42;-1.80;99.90
71142;DHT22;58808;59.366;17.970;2023-03-29T16:36:09;-1.80;99.90
71142;DHT22;58808;59.366;17.970;2023-03-29T16:38:35;-1.80;99.90
71142;DHT22;58808;59.366;17.970;2023-03-29T16:41:01;-1.80;99.90
71142;DHT22;58808;59.366;17.970;2023-03-29T16:43:28;-1.80;99.90
71142;DHT22;58808;59.366;17.970;2023-03-29T16:45:53;-1.90;99.90
71142;DHT22;58808;59.366;17.970;2023-03-29T16:48:19;-1.90;99.90
71142;DHT22;58808;59.366;17.970;2023-03-29T16:50:45;-1.90;99.90
71142;DHT22;58808;59.366;17.970;2023-03-29T16:53:15;-1.90;99.90
71142;DHT22;58808;59.366;17.970;2023-03-29T16:55:45;-2.00;99.90
71142;DHT22;58808;59.366;17.970;2023-03-29T16:58:11;-2.00;99.90
71142;DHT22;58808;59.366;17.970;2023-03-29T17:00:37;-2.00;99.90
71142;DHT22;58808;59.366;17.970;2023-03-29T17:03:03;-2.00;99.90
71142;DHT22;58808;59.366;17.970;2023-03-29T17:05:29;-2.00;99.90
71142;DHT22;58808;59.366;17.970;2023-03-29T17:07:56;-2.00;99.90
71142;DHT22;58808;59.366;17.970;2023-03-29T17:10:22;-2.00;99.90
71142;DHT22;58808;59.366;17.970;2023-03-29T17:12:48;-2.10;99.90
71142;DHT22;58808;59.366;17.970;2023-03-29T17:15:14;-2.00;99.90
71142;DHT22;58808;59.366;17.970;2023-03-29T17:17:40;-2.00;99.90